sensor_id;sensor_type;location;lat;lon;timestamp;pressure;altitude;pressure_sealevel;temperature;humidity
44934;BME280;30667;43.614;1.442;2023-02-10T00:01:39;102066.72;;;3.74;100.00
44934;BME280;30667;43.614;1.442;2023-02-10T00:04:05;102065.66;;;3.60;100.00
44934;BME280;30667;43.614;1.442;2023-02-10T00:06:31;102062.53;;;3.56;100.00
44934;BME280;30667;43.614;1.442;2023-02-10T00:08:58;102059.75;;;3.50;100.00
44934;BME280;30667;43.614;1.442;2023-02-10T00:11:25;102064.38;;;3.56;100.00
44934;BME280;30667;43.614;1.442;2023-02-10T00:14:10;102066.03;;;3.57;100.00
44934;BME280;30667;43.614;1.442;2023-02-10T00:16:35;102055.69;;;3.54;100.00
44934;BME280;30667;43.614;1.442;2023-02-10T00:19:01;102060.03;;;3.55;100.00
44934;BME280;30667;43.614;1.442;2023-02-10T00:21:26;102060.22;;;3.53;100.00
44934;BME280;30667;43.614;1.442;2023-02-10T00:23:52;102055.69;;;3.54;100.00
44934;BME280;30667;43.614;1.442;2023-02-10T00:26:17;102053.19;;;3.52;100.00
44934;BME280;30667;43.614;1.442;2023-02-10T00:28:42;102045.34;;;3.51;100.00
44934;BME280;30667;43.614;1.442;2023-02-10T00:31:10;102039.16;;;3.50;100.00
44934;BME280;30667;43.614;1.442;2023-02-10T00:33:36;102035.00;;;3.48;100.00
44934;BME280;30667;43.614;1.442;2023-02-10T00:36:04;102035.16;;;3.46;100.00
44934;BME280;30667;43.614;1.442;2023-02-10T00:38:29;102037.03;;;3.45;100.00
44934;BME280;30667;43.614;1.442;2023-02-10T00:40:55;102031.22;;;3.42;100.00
44934;BME280;30667;43.614;1.442;2023-02-10T00:43:20;102040.06;;;3.42;100.00
44934;BME280;30667;43.614;1.442;2023-02-10T00:45:46;102043.94;;;3.40;100.00
44934;BME280;30667;43.614;1.442;2023-02-10T00:48:11;102042.28;;;3.39;100.00
44934;BME280;30667;43.614;1.442;2023-02-10T00:50:36;102048.81;;;3.36;100.00
44934;BME280;30667;43.614;1.442;2023-02-10T00:53:02;102036.91;;;3.39;100.00
44934;BME280;30667;43.614;1.442;2023-02-10T00:55:27;102050.94;;;3.41;100.00
44934;BME280;30667;43.614;1.442;2023-02-10T00:57:53;102042.28;;;3.39;100.00
44934;BME280;30667;43.614;1.442;2023-02-10T01:00:18;102046.13;;;3.36;100.00
44934;BME280;30667;43.614;1.442;2023-02-10T01:02:43;102045.47;;;3.34;100.00
44934;BME280;30667;43.614;1.442;2023-02-10T01:05:09;102045.00;;;3.31;100.00
44934;BME280;30667;43.614;1.442;2023-02-10T01:07:34;102046.53;;;3.25;100.00
44934;BME280;30667;43.614;1.442;2023-02-10T01:09:59;102035.50;;;3.28;100.00
44934;BME280;30667;43.614;1.442;2023-02-10T01:12:25;102040.56;;;3.23;100.00
44934;BME280;30667;43.614;1.442;2023-02-10T01:14:50;102043.94;;;3.17;100.00
44934;BME280;30667;43.614;1.442;2023-02-10T01:17:16;102046.44;;;3.18;100.00
44934;BME280;30667;43.614;1.442;2023-02-10T01:19:41;102045.25;;;3.21;100.00
44934;BME280;30667;43.614;1.442;2023-02-10T01:22:06;102042.75;;;3.19;100.00
44934;BME280;30667;43.614;1.442;2023-02-10T01:24:32;102045.25;;;3.21;100.00
44934;BME280;30667;43.614;1.442;2023-02-10T01:26:57;102051.16;;;3.16;100.00
44934;BME280;30667;43.614;1.442;2023-02-10T01:29:22;102052.78;;;3.17;100.00
44934;BME280;30667;43.614;1.442;2023-02-10T01:31:48;102046.63;;;3.17;100.00
44934;BME280;30667;43.614;1.442;2023-02-10T01:34:13;102053.13;;;3.14;100.00
44934;BME280;30667;43.614;1.442;2023-02-10T01:36:39;102058.50;;;3.14;100.00
44934;BME280;30667;43.614;1.442;2023-02-10T01:39:04;102055.81;;;3.14;100.00
44934;BME280;30667;43.614;1.442;2023-02-10T01:41:29;102059.22;;;3.08;100.00
44934;BME280;30667;43.614;1.442;2023-02-10T01:44:01;102057.91;;;3.04;100.00
44934;BME280;30667;43.614;1.442;2023-02-10T01:46:29;102057.09;;;3.03;100.00
44934;BME280;30667;43.614;1.442;2023-02-10T01:48:56;102062.59;;;3.02;100.00
44934;BME280;30667;43.614;1.442;2023-02-10T01:51:37;102050.94;;;2.95;100.00
44934;BME280;30667;43.614;1.442;2023-02-10T01:54:04;102063.00;;;2.90;100.00
44934;BME280;30667;43.614;1.442;2023-02-10T01:56:30;102065.97;;;2.96;100.00
44934;BME280;30667;43.614;1.442;2023-02-10T01:58:56;102064.31;;;2.95;100.00
44934;BME280;30667;43.614;1.442;2023-02-10T02:01:21;102057.50;;;2.92;100.00
44934;BME280;30667;43.614;1.442;2023-02-10T02:03:47;102063.00;;;2.90;100.00
44934;BME280;30667;43.614;1.442;2023-02-10T02:06:12;102057.66;;;2.90;100.00
44934;BME280;30667;43.614;1.442;2023-02-10T02:08:38;102057.22;;;2.79;100.00
44934;BME280;30667;43.614;1.442;2023-02-10T02:16:27;102064.22;;;2.80;100.00
44934;BME280;30667;43.614;1.442;2023-02-10T02:33:28;102050.06;;;2.71;100.00
44934;BME280;30667;43.614;1.442;2023-02-10T02:36:41;102047.09;;;2.66;100.00
44934;BME280;30667;43.614;1.442;2023-02-10T02:39:02;102041.75;;;2.66;100.00
44934;BME280;30667;43.614;1.442;2023-02-10T02:41:29;102048.59;;;2.68;100.00
44934;BME280;30667;43.614;1.442;2023-02-10T02:43:56;102044.75;;;2.63;100.00
44934;BME280;30667;43.614;1.442;2023-02-10T02:49:05;102042.94;;;2.63;100.00
44934;BME280;30667;43.614;1.442;2023-02-10T02:52:09;102044.94;;;2.61;100.00
44934;BME280;30667;43.614;1.442;2023-02-10T02:54:47;102050.28;;;2.61;100.00
44934;BME280;30667;43.614;1.442;2023-02-10T02:57:19;102043.63;;;2.57;100.00
44934;BME280;30667;43.614;1.442;2023-02-10T02:59:58;102044.84;;;2.46;100.00
44934;BME280;30667;43.614;1.442;2023-02-10T03:02:26;102049.03;;;2.41;100.00
44934;BME280;30667;43.614;1.442;2023-02-10T03:04:54;102046.03;;;2.44;100.00
44934;BME280;30667;43.614;1.442;2023-02-10T03:07:19;102038.31;;;2.49;100.00
44934;BME280;30667;43.614;1.442;2023-02-10T03:09:45;102041.34;;;2.46;100.00
44934;BME280;30667;43.614;1.442;2023-02-10T03:12:11;102043.53;;;2.42;100.00
44934;BME280;30667;43.614;1.442;2023-02-10T03:14:38;102049.22;;;2.39;100.00
44934;BME280;30667;43.614;1.442;2023-02-10T03:17:04;102047.91;;;2.35;100.00
44934;BME280;30667;43.614;1.442;2023-02-10T03:19:29;102047.56;;;2.38;100.00
44934;BME280;30667;43.614;1.442;2023-02-10T03:21:55;102054.91;;;2.36;100.00
44934;BME280;30667;43.614;1.442;2023-02-10T03:24:20;102051.41;;;2.35;100.00
44934;BME280;30667;43.614;1.442;2023-02-10T03:26:45;102054.75;;;2.29;100.00
44934;BME280;30667;43.614;1.442;2023-02-10T03:29:12;102052.09;;;2.29;100.00
44934;BME280;30667;43.614;1.442;2023-02-10T03:31:38;102061.94;;;2.29;100.00
44934;BME280;30667;43.614;1.442;2023-02-10T03:34:03;102063.63;;;2.30;100.00
44934;BME280;30667;43.614;1.442;2023-02-10T03:36:29;102065.13;;;2.24;100.00
44934;BME280;30667;43.614;1.442;2023-02-10T03:38:54;102064.50;;;2.14;100.00
44934;BME280;30667;43.614;1.442;2023-02-10T03:41:20;102070.34;;;2.09;100.00
44934;BME280;30667;43.614;1.442;2023-02-10T03:43:45;102075.53;;;2.03;100.00
44934;BME280;30667;43.614;1.442;2023-02-10T03:46:11;102069.03;;;1.97;100.00
44934;BME280;30667;43.614;1.442;2023-02-10T03:48:36;102071.56;;;1.90;100.00
44934;BME280;30667;43.614;1.442;2023-02-10T03:51:05;102068.56;;;1.93;100.00
44934;BME280;30667;43.614;1.442;2023-02-10T03:53:31;102074.72;;;1.86;100.00
44934;BME280;30667;43.614;1.442;2023-02-10T03:55:57;102067.22;;;1.89;100.00
44934;BME280;30667;43.614;1.442;2023-02-10T03:58:23;102067.34;;;1.96;100.00
44934;BME280;30667;43.614;1.442;2023-02-10T04:00:49;102068.38;;;2.03;100.00
44934;BME280;30667;43.614;1.442;2023-02-10T04:03:14;102061.69;;;1.99;100.00
44934;BME280;30667;43.614;1.442;2023-02-10T04:05:40;102067.34;;;2.04;100.00
44934;BME280;30667;43.614;1.442;2023-02-10T04:08:06;102066.19;;;1.98;100.00
44934;BME280;30667;43.614;1.442;2023-02-10T04:10:31;102070.38;;;2.01;100.00
44934;BME280;30667;43.614;1.442;2023-02-10T04:12:57;102072.22;;;1.92;100.00
44934;BME280;30667;43.614;1.442;2023-02-10T04:15:22;102070.38;;;1.85;100.00
44934;BME280;30667;43.614;1.442;2023-02-10T04:17:48;102074.56;;;1.87;100.00
44934;BME280;30667;43.614;1.442;2023-02-10T04:20:14;102073.06;;;1.85;100.00
44934;BME280;30667;43.614;1.442;2023-02-10T04:22:40;102075.22;;;1.89;100.00
44934;BME280;30667;43.614;1.442;2023-02-10T04:25:06;102074.25;;;1.82;100.00
44934;BME280;30667;43.614;1.442;2023-02-10T04:27:32;102074.06;;;1.84;100.00
44934;BME280;30667;43.614;1.442;2023-02-10T04:29:57;102080.56;;;1.81;100.00
44934;BME280;30667;43.614;1.442;2023-02-10T04:32:23;102087.06;;;1.87;100.00
44934;BME280;30667;43.614;1.442;2023-02-10T04:34:48;102082.75;;;1.86;100.00
44934;BME280;30667;43.614;1.442;2023-02-10T04:37:14;102085.25;;;1.87;100.00
44934;BME280;30667;43.614;1.442;2023-02-10T04:39:39;102078.22;;;1.86;100.00
44934;BME280;30667;43.614;1.442;2023-02-10T04:42:05;102089.56;;;1.80;100.00
44934;BME280;30667;43.614;1.442;2023-02-10T04:44:30;102084.56;;;1.77;100.00
44934;BME280;30667;43.614;1.442;2023-02-10T04:46:56;102084.06;;;1.73;100.00
44934;BME280;30667;43.614;1.442;2023-02-10T04:49:21;102090.41;;;1.72;100.00
44934;BME280;30667;43.614;1.442;2023-02-10T04:51:47;102096.59;;;1.65;100.00
44934;BME280;30667;43.614;1.442;2023-02-10T04:54:12;102097.25;;;1.67;100.00
44934;BME280;30667;43.614;1.442;2023-02-10T04:56:38;102096.09;;;1.61;100.00
44934;BME280;30667;43.614;1.442;2023-02-10T04:59:03;102098.41;;;1.56;100.00
44934;BME280;30667;43.614;1.442;2023-02-10T05:01:29;102096.09;;;1.53;100.00
44934;BME280;30667;43.614;1.442;2023-02-10T05:03:54;102095.25;;;1.52;100.00
44934;BME280;30667;43.614;1.442;2023-02-10T05:06:19;102097.59;;;1.55;100.00
44934;BME280;30667;43.614;1.442;2023-02-10T05:08:45;102091.25;;;1.48;100.00
44934;BME280;30667;43.614;1.442;2023-02-10T05:11:13;102099.59;;;1.53;100.00
44934;BME280;30667;43.614;1.442;2023-02-10T05:13:39;102101.59;;;1.51;100.00
44934;BME280;30667;43.614;1.442;2023-02-10T05:16:05;102099.94;;;1.50;100.00
44934;BME280;30667;43.614;1.442;2023-02-10T05:18:32;102099.75;;;1.35;100.00
44934;BME280;30667;43.614;1.442;2023-02-10T05:20:58;102098.91;;;1.35;100.00
44934;BME280;30667;43.614;1.442;2023-02-10T05:23:24;102098.41;;;1.31;100.00
44934;BME280;30667;43.614;1.442;2023-02-10T05:25:50;102099.72;;;1.27;100.00
44934;BME280;30667;43.614;1.442;2023-02-10T05:28:15;102109.06;;;1.23;100.00
44934;BME280;30667;43.614;1.442;2023-02-10T05:30:41;102107.72;;;1.19;100.00
44934;BME280;30667;43.614;1.442;2023-02-10T05:33:06;102111.53;;;1.16;100.00
44934;BME280;30667;43.614;1.442;2023-02-10T05:35:32;102111.53;;;1.16;100.00
44934;BME280;30667;43.614;1.442;2023-02-10T05:37:57;102106.59;;;1.30;100.00
44934;BME280;30667;43.614;1.442;2023-02-10T05:40:23;102109.41;;;1.28;100.00
44934;BME280;30667;43.614;1.442;2023-02-10T05:42:49;102103.22;;;1.19;100.00
44934;BME280;30667;43.614;1.442;2023-02-10T05:45:15;102111.69;;;1.15;100.00
44934;BME280;30667;43.614;1.442;2023-02-10T05:47:40;102111.69;;;1.15;100.00
44934;BME280;30667;43.614;1.442;2023-02-10T05:50:05;102118.38;;;1.19;100.00
44934;BME280;30667;43.614;1.442;2023-02-10T05:52:31;102119.03;;;1.13;100.00
44934;BME280;30667;43.614;1.442;2023-02-10T05:54:56;102125.66;;;1.00;100.00
44934;BME280;30667;43.614;1.442;2023-02-10T05:57:22;102128.50;;;0.99;100.00
44934;BME280;30667;43.614;1.442;2023-02-10T05:59:47;102122.00;;;1.01;100.00
44934;BME280;30667;43.614;1.442;2023-02-10T06:02:12;102124.00;;;0.91;100.00
44934;BME280;30667;43.614;1.442;2023-02-10T06:04:38;102126.84;;;0.98;100.00
44934;BME280;30667;43.614;1.442;2023-02-10T06:07:03;102131.31;;;0.97;100.00
44934;BME280;30667;43.614;1.442;2023-02-10T06:09:29;102129.31;;;0.91;100.00
44934;BME280;30667;43.614;1.442;2023-02-10T06:11:55;102134.66;;;0.91;100.00
44934;BME280;30667;43.614;1.442;2023-02-10T06:14:20;102134.28;;;0.86;100.00
44934;BME280;30667;43.614;1.442;2023-02-10T06:16:46;102126.97;;;0.88;100.00
44934;BME280;30667;43.614;1.442;2023-02-10T06:19:11;102139.78;;;0.84;100.00
44934;BME280;30667;43.614;1.442;2023-02-10T06:21:37;102135.78;;;0.80;100.00
44934;BME280;30667;43.614;1.442;2023-02-10T06:24:02;102140.25;;;0.80;100.00
44934;BME280;30667;43.614;1.442;2023-02-10T06:26:27;102142.56;;;0.75;100.00
44934;BME280;30667;43.614;1.442;2023-02-10T06:28:54;102141.56;;;0.76;100.00
44934;BME280;30667;43.614;1.442;2023-02-10T06:31:19;102146.91;;;0.76;100.00
44934;BME280;30667;43.614;1.442;2023-02-10T06:33:45;102138.09;;;0.75;100.00
44934;BME280;30667;43.614;1.442;2023-02-10T06:36:10;102144.91;;;0.78;100.00
44934;BME280;30667;43.614;1.442;2023-02-10T06:38:37;102140.59;;;0.77;100.00
44934;BME280;30667;43.614;1.442;2023-02-10T06:41:03;102143.41;;;0.75;100.00
44934;BME280;30667;43.614;1.442;2023-02-10T06:43:29;102142.38;;;0.68;100.00
44934;BME280;30667;43.614;1.442;2023-02-10T06:45:54;102146.88;;;0.67;100.00
44934;BME280;30667;43.614;1.442;2023-02-10T06:48:19;102144.53;;;0.64;100.00
44934;BME280;30667;43.614;1.442;2023-02-10T06:50:45;102139.03;;;0.66;100.00
44934;BME280;30667;43.614;1.442;2023-02-10T06:53:10;102145.19;;;0.66;100.00
44934;BME280;30667;43.614;1.442;2023-02-10T06:55:36;102151.72;;;0.72;100.00
44934;BME280;30667;43.614;1.442;2023-02-10T06:58:02;102155.22;;;0.72;100.00
44934;BME280;30667;43.614;1.442;2023-02-10T07:00:28;102154.41;;;0.72;100.00
44934;BME280;30667;43.614;1.442;2023-02-10T07:02:54;102157.22;;;0.70;100.00
44934;BME280;30667;43.614;1.442;2023-02-10T07:05:19;102157.22;;;0.70;100.00
44934;BME280;30667;43.614;1.442;2023-02-10T07:07:45;102163.53;;;0.69;100.00
44934;BME280;30667;43.614;1.442;2023-02-10T07:10:11;102157.53;;;0.67;100.00
44934;BME280;30667;43.614;1.442;2023-02-10T07:12:37;102164.50;;;0.68;100.00
44934;BME280;30667;43.614;1.442;2023-02-10T07:15:04;102167.34;;;0.67;100.00
44934;BME280;30667;43.614;1.442;2023-02-10T07:17:29;102167.19;;;0.68;100.00
44934;BME280;30667;43.614;1.442;2023-02-10T07:19:54;102165.44;;;0.85;100.00
44934;BME280;30667;43.614;1.442;2023-02-10T07:22:20;102168.41;;;0.82;100.00
44934;BME280;30667;43.614;1.442;2023-02-10T07:24:46;102175.59;;;0.82;100.00
44934;BME280;30667;43.614;1.442;2023-02-10T07:27:11;102182.06;;;0.79;100.00
44934;BME280;30667;43.614;1.442;2023-02-10T07:29:36;102184.38;;;0.74;100.00
44934;BME280;30667;43.614;1.442;2023-02-10T07:32:04;102192.38;;;0.74;100.00
44934;BME280;30667;43.614;1.442;2023-02-10T07:34:29;102190.22;;;0.78;100.00
44934;BME280;30667;43.614;1.442;2023-02-10T07:36:56;102195.88;;;0.83;100.00
44934;BME280;30667;43.614;1.442;2023-02-10T07:39:25;102198.41;;;0.84;100.00
44934;BME280;30667;43.614;1.442;2023-02-10T07:41:51;102195.41;;;0.87;100.00
44934;BME280;30667;43.614;1.442;2023-02-10T07:44:17;102198.78;;;0.89;100.00
44934;BME280;30667;43.614;1.442;2023-02-10T07:46:43;102195.78;;;0.93;100.00
44934;BME280;30667;43.614;1.442;2023-02-10T07:49:08;102195.59;;;0.94;100.00
44934;BME280;30667;43.614;1.442;2023-02-10T07:51:34;102189.28;;;0.95;100.00
44934;BME280;30667;43.614;1.442;2023-02-10T07:53:59;102198.50;;;1.01;100.00
44934;BME280;30667;43.614;1.442;2023-02-10T07:56:25;102193.81;;;1.03;100.00
44934;BME280;30667;43.614;1.442;2023-02-10T07:58:50;102203.66;;;1.02;100.00
44934;BME280;30667;43.614;1.442;2023-02-10T08:01:16;102206.31;;;1.02;100.00
44934;BME280;30667;43.614;1.442;2023-02-10T08:03:41;102201.66;;;1.04;100.00
44934;BME280;30667;43.614;1.442;2023-02-10T08:06:07;102201.53;;;1.14;100.00
44934;BME280;30667;43.614;1.442;2023-02-10T08:08:32;102199.38;;;1.18;100.00
44934;BME280;30667;43.614;1.442;2023-02-10T08:10:58;102196.84;;;1.08;100.00
44934;BME280;30667;43.614;1.442;2023-02-10T08:13:23;102207.03;;;1.21;100.00
44934;BME280;30667;43.614;1.442;2023-02-10T08:15:49;102198.72;;;1.24;100.00
44934;BME280;30667;43.614;1.442;2023-02-10T08:18:16;102206.06;;;1.22;100.00
44934;BME280;30667;43.614;1.442;2023-02-10T08:20:41;102205.22;;;1.21;100.00
44934;BME280;30667;43.614;1.442;2023-02-10T08:23:13;102200.06;;;1.20;100.00
44934;BME280;30667;43.614;1.442;2023-02-10T08:25:39;102205.41;;;1.20;100.00
44934;BME280;30667;43.614;1.442;2023-02-10T08:28:05;102205.91;;;1.23;100.00
44934;BME280;30667;43.614;1.442;2023-02-10T08:30:30;102208.09;;;1.28;100.00
44934;BME280;30667;43.614;1.442;2023-02-10T08:32:56;102206.59;;;1.42;100.00
44934;BME280;30667;43.614;1.442;2023-02-10T08:35:22;102204.66;;;1.52;100.00
44934;BME280;30667;43.614;1.442;2023-02-10T08:37:47;102204.97;;;1.49;100.00
44934;BME280;30667;43.614;1.442;2023-02-10T08:40:13;102202.47;;;1.64;100.00
44934;BME280;30667;43.614;1.442;2023-02-10T08:42:38;102207.50;;;1.67;100.00
44934;BME280;30667;43.614;1.442;2023-02-10T08:45:04;102202.50;;;1.72;100.00
44934;BME280;30667;43.614;1.442;2023-02-10T08:47:30;102205.69;;;1.76;100.00
44934;BME280;30667;43.614;1.442;2023-02-10T08:49:55;102203.19;;;1.74;100.00
44934;BME280;30667;43.614;1.442;2023-02-10T08:52:22;102204.00;;;1.83;100.00
44934;BME280;30667;43.614;1.442;2023-02-10T08:54:47;102202.31;;;1.74;100.00
44934;BME280;30667;43.614;1.442;2023-02-10T08:57:13;102207.88;;;1.80;100.00
44934;BME280;30667;43.614;1.442;2023-02-10T08:59:38;102207.53;;;1.84;100.00
44934;BME280;30667;43.614;1.442;2023-02-10T09:02:03;102202.19;;;1.92;100.00
44934;BME280;30667;43.614;1.442;2023-02-10T09:04:29;102195.19;;;1.99;100.00
44934;BME280;30667;43.614;1.442;2023-02-10T09:06:54;102193.84;;;2.03;100.00
44934;BME280;30667;43.614;1.442;2023-02-10T09:09:22;102201.38;;;2.08;100.00
44934;BME280;30667;43.614;1.442;2023-02-10T09:11:50;102207.84;;;2.13;100.00
44934;BME280;30667;43.614;1.442;2023-02-10T09:14:15;102209.19;;;2.17;100.00
44934;BME280;30667;43.614;1.442;2023-02-10T09:16:41;102204.34;;;2.21;100.00
44934;BME280;30667;43.614;1.442;2023-02-10T09:19:06;102212.03;;;2.32;100.00
44934;BME280;30667;43.614;1.442;2023-02-10T09:21:32;102212.84;;;2.33;100.00
44934;BME280;30667;43.614;1.442;2023-02-10T09:23:57;102210.38;;;2.31;100.00
44934;BME280;30667;43.614;1.442;2023-02-10T09:26:23;102209.34;;;2.41;100.00
44934;BME280;30667;43.614;1.442;2023-02-10T09:28:51;102204.16;;;2.47;100.00
44934;BME280;30667;43.614;1.442;2023-02-10T09:31:18;102209.31;;;2.49;100.00
44934;BME280;30667;43.614;1.442;2023-02-10T09:33:44;102204.81;;;2.58;100.00
44934;BME280;30667;43.614;1.442;2023-02-10T09:36:17;102196.94;;;2.64;100.00
44934;BME280;30667;43.614;1.442;2023-02-10T09:38:48;102209.13;;;2.67;100.00
44934;BME280;30667;43.614;1.442;2023-02-10T09:41:38;102197.41;;;2.68;100.00
44934;BME280;30667;43.614;1.442;2023-02-10T09:54:48;102211.28;;;3.19;100.00
44934;BME280;30667;43.614;1.442;2023-02-10T09:57:37;102216.41;;;3.29;100.00
44934;BME280;30667;43.614;1.442;2023-02-10T10:00:05;102214.34;;;3.39;100.00
44934;BME280;30667;43.614;1.442;2023-02-10T10:02:45;102212.19;;;3.35;100.00
44934;BME280;30667;43.614;1.442;2023-02-10T10:05:22;102219.53;;;3.41;100.00
44934;BME280;30667;43.614;1.442;2023-02-10T10:07:50;102215.16;;;3.48;100.00
44934;BME280;30667;43.614;1.442;2023-02-10T10:10:25;102209.63;;;3.50;100.00
44934;BME280;30667;43.614;1.442;2023-02-10T10:12:51;102204.56;;;3.55;100.00
44934;BME280;30667;43.614;1.442;2023-02-10T10:15:18;102203.50;;;3.64;100.00
44934;BME280;30667;43.614;1.442;2023-02-10T10:23:41;102206.78;;;3.97;100.00
44934;BME280;30667;43.614;1.442;2023-02-10T10:26:35;102211.59;;;4.02;100.00
44934;BME280;30667;43.614;1.442;2023-02-10T10:29:23;102210.16;;;4.14;100.00
44934;BME280;30667;43.614;1.442;2023-02-10T10:32:08;102214.41;;;4.24;100.00
44934;BME280;30667;43.614;1.442;2023-02-10T10:34:39;102202.81;;;4.31;100.00
44934;BME280;30667;43.614;1.442;2023-02-10T10:37:15;102199.69;;;4.43;100.00
44934;BME280;30667;43.614;1.442;2023-02-10T10:39:44;102202.19;;;4.44;100.00
44934;BME280;30667;43.614;1.442;2023-02-10T10:42:27;102196.63;;;4.46;100.00
44934;BME280;30667;43.614;1.442;2023-02-10T10:45:02;102192.19;;;4.53;100.00
44934;BME280;30667;43.614;1.442;2023-02-10T10:47:54;102191.81;;;4.56;100.00
44934;BME280;30667;43.614;1.442;2023-02-10T10:50:22;102191.19;;;4.84;100.00
44934;BME280;30667;43.614;1.442;2023-02-10T10:52:53;102187.59;;;4.91;100.00
44934;BME280;30667;43.614;1.442;2023-02-10T10:55:38;102187.97;;;4.88;100.00
44934;BME280;30667;43.614;1.442;2023-02-10T10:58:23;102183.56;;;5.02;100.00
44934;BME280;30667;43.614;1.442;2023-02-10T11:00:52;102186.81;;;5.13;100.00
44934;BME280;30667;43.614;1.442;2023-02-10T11:03:19;102182.16;;;5.21;100.00
44934;BME280;30667;43.614;1.442;2023-02-10T11:06:00;102181.59;;;5.26;100.00
44934;BME280;30667;43.614;1.442;2023-02-10T11:08:30;102172.78;;;5.32;100.00
44934;BME280;30667;43.614;1.442;2023-02-10T11:11:00;102171.91;;;5.46;100.00
44934;BME280;30667;43.614;1.442;2023-02-10T11:13:29;102166.41;;;5.55;100.00
44934;BME280;30667;43.614;1.442;2023-02-10T11:18:29;102154.84;;;5.76;100.00
44934;BME280;30667;43.614;1.442;2023-02-10T11:21:07;102160.22;;;5.76;100.00
44934;BME280;30667;43.614;1.442;2023-02-10T11:23:46;102159.34;;;5.69;100.00
44934;BME280;30667;43.614;1.442;2023-02-10T11:26:19;102157.03;;;5.66;100.00
44934;BME280;30667;43.614;1.442;2023-02-10T11:28:45;102152.91;;;5.91;100.00
44934;BME280;30667;43.614;1.442;2023-02-10T11:31:30;102145.69;;;5.92;100.00
44934;BME280;30667;43.614;1.442;2023-02-10T11:34:03;102140.41;;;5.98;100.00
44934;BME280;30667;43.614;1.442;2023-02-10T11:36:38;102134.03;;;6.06;100.00
44934;BME280;30667;43.614;1.442;2023-02-10T11:39:27;102136.16;;;6.11;100.00
44934;BME280;30667;43.614;1.442;2023-02-10T11:41:53;102130.84;;;6.17;100.00
44934;BME280;30667;43.614;1.442;2023-02-10T11:44:29;102129.75;;;6.12;100.00
44934;BME280;30667;43.614;1.442;2023-02-10T11:47:02;102128.22;;;6.31;100.00
44934;BME280;30667;43.614;1.442;2023-02-10T11:49:29;102122.06;;;6.37;100.00
44934;BME280;30667;43.614;1.442;2023-02-10T11:52:00;102125.38;;;6.39;95.13
44934;BME280;30667;43.614;1.442;2023-02-10T11:54:27;102114.88;;;6.51;93.12
44934;BME280;30667;43.614;1.442;2023-02-10T12:19:01;102084.91;;;7.09;85.23
44934;BME280;30667;43.614;1.442;2023-02-10T12:30:26;102064.84;;;7.25;75.20
44934;BME280;30667;43.614;1.442;2023-02-10T12:39:12;102059.91;;;7.42;64.39
44934;BME280;30667;43.614;1.442;2023-02-10T12:46:45;102062.41;;;7.57;67.61
44934;BME280;30667;43.614;1.442;2023-02-10T12:49:40;102051.00;;;7.55;68.58
44934;BME280;30667;43.614;1.442;2023-02-10T12:52:14;102048.31;;;7.68;62.79
44934;BME280;30667;43.614;1.442;2023-02-10T12:54:43;102048.50;;;7.73;62.49
44934;BME280;30667;43.614;1.442;2023-02-10T12:59:59;102046.00;;;7.78;62.63
44934;BME280;30667;43.614;1.442;2023-02-10T13:02:45;102035.03;;;7.67;61.72
44934;BME280;30667;43.614;1.442;2023-02-10T13:05:17;102028.63;;;7.68;62.78
44934;BME280;30667;43.614;1.442;2023-02-10T13:07:51;102028.38;;;7.82;63.50
44934;BME280;30667;43.614;1.442;2023-02-10T13:10:39;102017.59;;;7.89;63.13
44934;BME280;30667;43.614;1.442;2023-02-10T13:13:11;102018.63;;;7.95;63.53
44934;BME280;30667;43.614;1.442;2023-02-10T13:15:47;102019.50;;;7.82;63.75
44934;BME280;30667;43.614;1.442;2023-02-10T13:18:20;102017.19;;;7.86;64.36
44934;BME280;30667;43.614;1.442;2023-02-10T13:21:14;102016.78;;;7.82;64.28
44934;BME280;30667;43.614;1.442;2023-02-10T13:23:53;102006.00;;;7.82;64.03
44934;BME280;30667;43.614;1.442;2023-02-10T13:34:41;102001.41;;;8.03;69.66
44934;BME280;30667;43.614;1.442;2023-02-10T13:37:31;101997.22;;;8.20;67.45
44934;BME280;30667;43.614;1.442;2023-02-10T13:40:03;101983.13;;;8.11;68.45
44934;BME280;30667;43.614;1.442;2023-02-10T13:42:35;101981.22;;;8.25;68.78
44934;BME280;30667;43.614;1.442;2023-02-10T13:47:46;101972.31;;;8.18;65.77
44934;BME280;30667;43.614;1.442;2023-02-10T14:00:24;101967.34;;;8.15;64.17
44934;BME280;30667;43.614;1.442;2023-02-10T14:05:51;101956.75;;;8.20;63.75
44934;BME280;30667;43.614;1.442;2023-02-10T14:14:16;101947.09;;;8.37;62.55
44934;BME280;30667;43.614;1.442;2023-02-10T14:16:42;101943.41;;;8.32;63.67
44934;BME280;30667;43.614;1.442;2023-02-10T14:19:23;101932.66;;;8.25;61.88
44934;BME280;30667;43.614;1.442;2023-02-10T14:21:53;101932.59;;;8.39;60.58
44934;BME280;30667;43.614;1.442;2023-02-10T14:24:25;101934.03;;;8.48;60.43
44934;BME280;30667;43.614;1.442;2023-02-10T14:26:52;101933.00;;;8.49;57.98
44934;BME280;30667;43.614;1.442;2023-02-10T14:29:19;101923.91;;;8.36;57.27
44934;BME280;30667;43.614;1.442;2023-02-10T14:31:52;101928.69;;;8.34;55.86
44934;BME280;30667;43.614;1.442;2023-02-10T14:34:27;101933.63;;;8.44;54.31
44934;BME280;30667;43.614;1.442;2023-02-10T14:36:56;101929.47;;;8.42;55.29
44934;BME280;30667;43.614;1.442;2023-02-10T14:39:23;101928.00;;;8.39;55.17
44934;BME280;30667;43.614;1.442;2023-02-10T14:41:51;101929.22;;;8.50;52.64
44934;BME280;30667;43.614;1.442;2023-02-10T14:46:51;101922.41;;;8.47;51.43
44934;BME280;30667;43.614;1.442;2023-02-10T14:49:20;101925.47;;;8.58;51.57
44934;BME280;30667;43.614;1.442;2023-02-10T14:51:46;101922.81;;;8.51;52.79
44934;BME280;30667;43.614;1.442;2023-02-10T14:54:23;101913.47;;;8.47;52.89
44934;BME280;30667;43.614;1.442;2023-02-10T14:56:55;101919.94;;;8.46;51.81